aviador You're here:

LFKJ Decoded Metar

AJACCIO in CORSE ISL.
Report Time2018-02-20 03:00:00
UTC Time2018-02-20 03:26:57
Flight Rules vfr VFR
Wind040° at 05 kt
W.Decomp.*RWY 02: 4.7 kt HW 1.6 kt RCW
W.Rank040° ranks 1
Current wind is below 040° avg. (5.5)
Visibility9999 m
Phenomena:N/A
Clouds:Scattered 054 Hf
Overcast 084 Hf
Expected CloudBase > 800 ft AGL from Temp-Dew spread
Ceiling8,400 ft
Temp06°C (ISA -9)
Dew Point04°C (87% RH)
AAT2.9°C
QNH1009 hPa
Density Alt-801 ft
Elevation30 ft
Report Wrong Elevation
Raw Report
LFKJ 200300Z AUTO 04005KT 9999 SCT054 OVC084 06/04 Q1009 NOSIG=

Extra information for LFKJ:More info

Metar Taf Metar & Taf Last 4 Metars F.Rules Stats Wind Profile Meteogram Temp Stats Airport Information Weather charts Add Link Nearby VenuesMetar ALERT Operation Metar Decoded Social comments